メインページ
METAR-TAF:

METAR-TAF

空港 :

リスボン, ポルトガル

ウンベルト・デルガード空港

緯度: 38-46N, 経度: 009-08W, 海抜: 114m

現時点の気象観測

当レポートは38分前の15:00(UTC)に作成
北西の風 9kt
気温 21°C
湿度 78%
気圧 1014 hPa
視程10km以上
高度2600ftの雲はほとんどない
高度3400ftの雲は散在している
弱いにわか雨

METAR: LPPT 251500Z 31009KT 9999 -SHRA FEW026 SCT034 21/17 Q1014

時間: 16:38 (15:38 UTC)


TAF: 見つかりません

4,000以上の空港の気象観測と天気予報(METAR報とTAF報)

利用可能な観測所は地図上に黄色い丸と赤い丸で示す。

丸の上にカーソルを重ねると観測所名を参照できる。

次にクリックすると気象観測と天気予報を参照できる。

マップの切り替え:黒色「×」印の緑ボタンをクリックして拡大、「-」印の緑ボタンをクリックして縮小、緑色の三角印をクリックして隣りの地図に切り替え


METAR-TAF: